Historical Data

TheSutherlands

Weather at Humberside Airport

Current Weather from Humberside Airport

The information displayed on this page is from the METAR reports produced by Humberside Airport. Note that there are times when these are not generated.

Weather Report

Coded Weather Report: 2020/07/09 10:50 EGNJ 091050Z 06011KT 020V080 3200 DZ BR BKN004 OVC012 13/12 Q1012

Report issued: 2020/07/09 at 10:50 UTC

Wind: moderate breeze from the northeast (060 degrees) at 11 knots (13 mph, 20 kph, Force 4)
Wind: direction varying between from the north (020 degrees) and from the east (080 degrees)
Visibility: 3200 metres
Weather: drizzle
Weather: mist
Cloud: broken at 400 feet
Cloud: overcast at 1200 feet
Temperature: 13 C
Dewpoint: 12 C
Humidity: 94%
Pressure: 1012 hPa